Time;durP1;ratioP1;P1;durP2;ratioP2;P2;SDS_P1;SDS_P2;PMS_P1;PMS_P2;Temp;Humidity;BMP_temperature;BMP_pressure;BME280_temperature;BME280_humidity;BME280_pressure;Samples;Min_cycle;Max_cycle;Signal;HPM_P1;HPM_P2
2022/11/27 00:01:51;;;;;;;6.80;3.97;;;;;;;16.56;35.90;102052.03;5077175;28;20115;-93
2022/11/27 00:04:16;;;;;;;6.13;3.67;;;;;;;16.55;35.77;102044.09;5073124;28;20028;-92
2022/11/27 00:06:42;;;;;;;4.80;3.10;;;;;;;16.45;35.80;102039.84;5068888;28;20107;-92
2022/11/27 00:09:10;;;;;;;5.70;3.40;;;;;;;16.56;35.80;102053.84;5058604;28;20035;-92
2022/11/27 00:11:38;;;;;;;5.20;2.80;;;;;;;16.58;35.82;102049.13;5058911;28;20027;-92
2022/11/27 00:14:09;;;;;;;5.50;3.50;;;;;;;16.49;35.81;102046.53;5058367;28;20027;-92
2022/11/27 00:16:38;;;;;;;4.20;3.08;;;;;;;16.42;35.81;102040.22;5040390;28;20107;-93
2022/11/27 00:19:04;;;;;;;6.57;3.83;;;;;;;16.46;36.14;102040.66;5041108;28;20095;-92
2022/11/27 00:21:31;;;;;;;5.30;3.13;;;;;;;16.44;35.88;102043.56;5042059;28;20024;-91
2022/11/27 00:24:00;;;;;;;6.57;3.38;;;;;;;16.51;35.68;102054.44;5059989;28;20036;-94
2022/11/27 00:26:29;;;;;;;6.85;3.90;;;;;;;16.45;35.74;102049.78;5056182;28;20063;-92
2022/11/27 00:28:54;;;;;;;4.28;3.05;;;;;;;16.45;35.85;102042.53;5057852;28;20071;-93
2022/11/27 00:31:22;;;;;;;5.10;3.13;;;;;;;16.59;35.78;102078.66;5044908;28;20057;-94
2022/11/27 00:33:47;;;;;;;5.50;3.22;;;;;;;16.41;35.82;102043.09;5055888;28;20029;-92
2022/11/27 00:36:13;;;;;;;5.15;3.38;;;;;;;16.45;35.72;102052.47;5056761;28;20494;-93
2022/11/27 00:38:39;;;;;;;4.72;3.30;;;;;;;16.43;35.89;102057.22;5041229;28;20081;-93
2022/11/27 00:41:10;;;;;;;4.40;3.20;;;;;;;16.45;35.76;102052.47;5057014;28;20510;-93
2022/11/27 00:43:36;;;;;;;4.93;3.20;;;;;;;16.45;35.63;102053.34;5049927;28;20298;-93
2022/11/27 00:46:01;;;;;;;4.30;3.00;;;;;;;16.51;35.74;102062.53;5044088;28;20142;-92
2022/11/27 00:48:27;;;;;;;4.60;3.28;;;;;;;16.49;35.66;102051.09;5057306;28;20118;-93
2022/11/27 00:50:58;;;;;;;5.50;3.38;;;;;;;16.56;35.73;102068.22;5058052;28;20020;-93
2022/11/27 00:53:24;;;;;;;5.38;3.50;;;;;;;16.53;35.65;102055.09;5047684;28;20024;-92
2022/11/27 00:55:50;;;;;;;4.43;3.17;;;;;;;16.52;35.54;102061.50;5058068;28;20474;-92
2022/11/27 00:58:15;;;;;;;4.65;3.20;;;;;;;16.49;35.72;102056.50;5040584;28;20507;-93
2022/11/27 01:00:41;;;;;;;5.07;3.40;;;;;;;16.43;35.60;102041.84;5049833;28;20034;-93
2022/11/27 01:03:10;;;;;;;5.18;3.38;;;;;;;16.50;35.74;102063.53;5074546;28;20407;-93
2022/11/27 01:05:36;;;;;;;3.92;3.20;;;;;;;16.45;35.73;102047.94;5040729;28;20024;-92
2022/11/27 01:08:02;;;;;;;4.35;3.30;;;;;;;16.58;35.75;102060.75;5040627;28;20074;-92
2022/11/27 01:10:27;;;;;;;4.82;3.30;;;;;;;16.57;35.71;102052.84;5072173;28;20016;-93
2022/11/27 01:12:53;;;;;;;5.18;3.72;;;;;;;16.58;35.64;102065.34;5041029;28;20578;-93
2022/11/27 01:15:19;;;;;;;4.45;3.03;;;;;;;16.58;35.78;102066.16;5074383;28;20115;-91
2022/11/27 01:17:44;;;;;;;4.78;3.20;;;;;;;16.47;35.77;102039.63;5058340;28;20112;-92
2022/11/27 01:20:10;;;;;;;4.97;3.28;;;;;;;16.58;35.57;102060.75;5056787;28;20428;-93
2022/11/27 01:22:36;;;;;;;5.28;3.35;;;;;;;16.53;35.75;102057.78;5057380;28;20043;-92
2022/11/27 01:25:02;;;;;;;4.65;3.30;;;;;;;16.56;35.72;102056.56;5041993;28;20024;-93
2022/11/27 01:27:27;;;;;;;5.00;3.50;;;;;;;16.49;35.75;102049.22;5069481;28;20028;-92
2022/11/27 01:29:53;;;;;;;4.90;3.42;;;;;;;16.49;35.76;102051.94;5061999;28;20036;-93
2022/11/27 01:32:19;;;;;;;4.70;3.10;;;;;;;16.47;35.71;102053.13;5060798;28;20020;-92
2022/11/27 01:34:44;;;;;;;4.50;3.05;;;;;;;16.46;35.51;102046.88;5077515;28;21813;-93
2022/11/27 01:37:13;;;;;;;5.80;3.58;;;;;;;16.52;35.75;102053.41;5062403;28;20371;-92
2022/11/27 01:39:38;;;;;;;4.75;3.40;;;;;;;16.43;35.80;102041.84;5060656;28;20016;-92
2022/11/27 01:42:10;;;;;;;5.28;3.38;;;;;;;16.42;35.54;102036.66;5064901;28;20023;-94
2022/11/27 01:44:35;;;;;;;4.53;3.15;;;;;;;16.59;35.76;102057.06;5069774;28;20485;-92
2022/11/27 01:47:16;;;;;;;5.10;3.50;;;;;;;16.53;35.79;102052.38;5078903;28;20016;-93
2022/11/27 01:49:45;;;;;;;5.82;3.60;;;;;;;16.55;35.79;102060.31;5055787;28;20474;-93
2022/11/27 01:52:26;;;;;;;4.70;3.50;;;;;;;16.48;35.61;102041.31;5041251;28;20028;-92
2022/11/27 01:54:55;;;;;;;4.20;3.08;;;;;;;16.48;35.82;102041.31;5078580;28;20058;-92
2022/11/27 01:57:29;;;;;;;4.82;3.13;;;;;;;16.56;35.76;102054.72;5061049;28;20047;-92
2022/11/27 01:59:55;;;;;;;;;;;;;;;16.60;35.71;102058.72;5045307;28;20611;-93
2022/11/27 02:02:21;;;;;;;5.53;3.35;;;;;;;16.53;35.53;102055.91;5093683;28;20007;-93
2022/11/27 02:04:46;;;;;;;4.47;3.10;;;;;;;16.56;35.72;102061.97;5060866;28;20034;-92
2022/11/27 02:07:12;;;;;;;5.18;3.20;;;;;;;16.43;35.75;102038.34;5058574;28;20491;-93
2022/11/27 02:09:40;;;;;;;4.75;3.15;;;;;;;16.52;35.61;102050.69;5068899;28;20530;-93
2022/11/27 02:12:14;;;;;;;5.57;3.25;;;;;;;16.58;35.71;102059.94;5075869;28;20069;-93
2022/11/27 02:15:05;;;;;;;3.70;3.17;;;;;;;16.54;35.74;102059.47;5068851;28;20051;-92
2022/11/27 02:17:56;;;;;;;4.43;3.20;;;;;;;16.59;35.65;102067.84;5052396;28;20036;-94
2022/11/27 02:20:27;;;;;;;4.60;3.08;;;;;;;16.59;35.64;102067.00;5076385;28;20028;-92
2022/11/27 02:23:20;;;;;;;3.90;2.90;;;;;;;16.58;35.67;102063.47;5077159;28;20391;-93
2022/11/27 02:26:08;;;;;;;5.07;3.03;;;;;;;16.57;35.68;102069.88;5075707;28;20028;-92
2022/11/27 02:28:54;;;;;;;5.15;3.55;;;;;;;16.57;35.75;102069.88;5079613;28;20035;-93
2022/11/27 02:31:22;;;;;;;5.38;3.10;;;;;;;16.58;35.72;102065.34;5059395;28;20032;-92
2022/11/27 02:33:50;;;;;;;4.50;3.30;;;;;;;16.57;35.59;102074.44;5060183;28;20119;-93
2022/11/27 02:36:21;;;;;;;3.90;2.88;;;;;;;16.57;35.50;102075.28;5058572;28;20051;-92
2022/11/27 02:39:00;;;;;;;3.45;2.83;;;;;;;16.47;35.79;102061.22;5060886;28;20055;-92
2022/11/27 02:41:29;;;;;;;4.80;3.13;;;;;;;16.44;35.41;102059.75;5058864;28;20567;-92
2022/11/27 02:43:54;;;;;;;5.30;3.70;;;;;;;16.50;35.72;102058.16;5076036;28;20016;-92
2022/11/27 02:46:20;;;;;;;4.13;2.80;;;;;;;16.41;35.69;102037.69;5076433;28;20077;-93
2022/11/27 02:48:54;;;;;;;5.68;3.20;;;;;;;16.59;35.55;102062.44;5059322;28;20227;-92
2022/11/27 02:51:22;;;;;;;3.83;2.80;;;;;;;16.50;35.75;102058.16;5042813;28;20040;-93
2022/11/27 02:53:53;;;;;;;4.00;2.83;;;;;;;16.59;35.59;102067.84;5043481;28;20457;-92
2022/11/27 02:56:21;;;;;;;4.25;3.17;;;;;;;16.58;35.56;102063.47;5076679;28;20054;-93
2022/11/27 02:58:47;;;;;;;4.45;2.80;;;;;;;16.59;35.74;102067.84;5066805;28;20479;-92
2022/11/27 03:01:13;;;;;;;4.03;2.88;;;;;;;16.50;35.60;102050.88;5069776;28;20114;-92
2022/11/27 03:03:42;;;;;;;3.78;2.90;;;;;;;16.56;35.60;102068.22;5075725;28;20028;-93
2022/11/27 03:06:13;;;;;;;4.78;2.70;;;;;;;16.49;35.61;102059.19;5068291;28;20067;-92
2022/11/27 03:08:56;;;;;;;3.88;2.83;;;;;;;16.56;35.75;102070.06;5059955;28;20317;-92
2022/11/27 03:11:23;;;;;;;4.77;3.03;;;;;;;16.52;35.63;102065.06;5060577;28;20055;-92
2022/11/27 03:13:52;;;;;;;3.90;2.70;;;;;;;16.51;35.63;102066.06;5076046;28;20070;-93
2022/11/27 03:16:47;;;;;;;4.45;2.85;;;;;;;16.56;35.59;102073.63;5056912;28;20391;-93
2022/11/27 03:19:17;;;;;;;3.42;2.60;;;;;;;16.58;35.69;102079.66;5075623;28;20422;-93
2022/11/27 03:21:44;;;;;;;3.33;2.85;;;;;;;16.58;35.79;102076.97;5058777;28;20032;-93
2022/11/27 03:24:10;;;;;;;3.67;2.50;;;;;;;16.55;35.61;102071.91;5076149;28;20020;-93
2022/11/27 03:26:39;;;;;;;3.70;2.92;;;;;;;16.58;35.61;102074.25;5041623;28;20021;-93
2022/11/27 03:29:07;;;;;;;5.43;2.85;;;;;;;16.52;35.61;102056.97;5057577;28;20044;-93
2022/11/27 03:31:33;;;;;;;3.30;2.63;;;;;;;16.52;35.60;102056.97;5069100;28;20020;-93
2022/11/27 03:33:58;;;;;;;3.75;2.55;;;;;;;16.53;35.55;102065.88;5058872;28;20042;-93
2022/11/27 03:36:24;;;;;;;3.47;2.58;;;;;;;16.58;35.66;102079.66;5058684;28;20384;-92
2022/11/27 03:38:50;;;;;;;4.53;2.30;;;;;;;16.51;35.66;102071.47;5071420;28;20039;-94
2022/11/27 03:41:49;;;;;;;3.92;2.67;;;;;;;16.60;35.59;102080.31;5058123;28;20028;-93
2022/11/27 03:44:36;;;;;;;5.57;2.78;;;;;;;16.59;35.54;102081.34;5076477;28;20031;-93
2022/11/27 03:47:29;;;;;;;3.60;2.70;;;;;;;16.58;35.63;102081.53;5076777;28;20038;-93
2022/11/27 03:50:19;;;;;;;3.45;2.20;;;;;;;16.59;35.49;102077.78;5075457;28;20032;-92
2022/11/27 03:52:55;;;;;;;4.20;2.80;;;;;;;16.57;35.66;102074.44;5074922;28;20028;-93
2022/11/27 03:55:49;;;;;;;3.15;2.40;;;;;;;16.53;35.66;102071.28;5075305;28;20067;-93
2022/11/27 03:58:36;;;;;;;3.42;2.53;;;;;;;16.55;35.82;102076.50;5073791;28;20035;-93
2022/11/27 04:01:03;;;;;;;3.35;2.50;;;;;;;16.51;35.66;102065.22;5060445;28;20122;-94
2022/11/27 04:03:29;;;;;;;3.35;2.80;;;;;;;16.48;35.65;102060.19;5075147;28;20086;-94
2022/11/27 04:05:57;;;;;;;3.28;2.47;;;;;;;16.58;35.57;102073.44;5077151;28;20024;-94
2022/11/27 04:08:23;;;;;;;4.25;2.90;;;;;;;16.56;35.36;102084.41;5074607;28;20032;-93
2022/11/27 04:10:49;;;;;;;3.90;2.67;;;;;;;16.48;35.63;102071.00;5058260;28;20024;-93
2022/11/27 04:13:15;;;;;;;3.50;2.50;;;;;;;16.51;35.47;102070.63;5052853;28;20028;-92
2022/11/27 04:15:40;;;;;;;3.75;2.55;;;;;;;16.53;35.65;102069.41;5051624;28;20086;-93
2022/11/27 04:18:06;;;;;;;3.97;2.50;;;;;;;16.55;35.67;102066.53;5048309;28;20089;-92
2022/11/27 04:20:32;;;;;;;4.05;2.70;;;;;;;16.52;35.56;102066.88;5069034;28;20020;-93
2022/11/27 04:22:57;;;;;;;3.25;2.45;;;;;;;16.52;35.66;102066.88;5059395;28;20024;-93
2022/11/27 04:25:23;;;;;;;3.13;2.47;;;;;;;16.53;35.58;102063.19;5042037;28;20032;-93
2022/11/27 04:27:49;;;;;;;6.70;2.22;;;;;;;16.43;35.59;102046.44;5041779;28;20031;-93
2022/11/27 04:30:15;;;;;;;3.00;2.30;;;;;;;16.49;35.47;102051.09;5040323;28;20040;-92
2022/11/27 04:32:44;;;;;;;2.53;2.30;;;;;;;16.53;35.73;102060.47;5067999;28;20506;-93
2022/11/27 04:35:09;;;;;;;3.45;2.72;;;;;;;16.56;35.50;102065.50;5064911;28;22259;-93
2022/11/27 04:37:35;;;;;;;3.03;2.25;;;;;;;16.37;35.56;102037.22;5058490;28;20475;-93
2022/11/27 04:40:01;;;;;;;3.55;2.80;;;;;;;16.53;35.60;102063.19;5041971;28;20024;-92
2022/11/27 04:42:26;;;;;;;3.60;2.47;;;;;;;16.53;35.70;102063.19;5040708;28;20032;-93
2022/11/27 04:44:52;;;;;;;3.72;2.50;;;;;;;16.47;35.87;102059.38;5042370;28;20035;-93
2022/11/27 04:47:18;;;;;;;2.65;2.15;;;;;;;16.53;35.57;102068.59;5041103;28;20108;-94
2022/11/27 04:49:43;;;;;;;2.60;2.20;;;;;;;16.57;35.67;102069.88;5054620;28;20067;-93
2022/11/27 04:52:11;;;;;;;3.70;2.60;;;;;;;16.45;35.63;102050.63;5075540;28;20024;-93
2022/11/27 04:54:37;;;;;;;2.83;2.20;;;;;;;16.50;35.60;102052.75;5075536;28;20034;-92
2022/11/27 04:57:03;;;;;;;3.80;2.30;;;;;;;16.52;35.70;102062.34;5042733;28;20115;-93
2022/11/27 04:59:28;;;;;;;3.33;2.45;;;;;;;16.59;35.49;102075.94;5076103;28;20475;-93
2022/11/27 05:01:54;;;;;;;3.50;2.40;;;;;;;16.50;35.50;102058.97;5036678;28;20044;-93
2022/11/27 05:04:20;;;;;;;2.83;2.10;;;;;;;16.53;35.57;102061.31;5041022;28;20055;-93
2022/11/27 05:06:46;;;;;;;3.03;2.22;;;;;;;16.48;35.65;102054.81;5042227;28;20028;-93
2022/11/27 05:09:11;;;;;;;3.50;2.53;;;;;;;16.53;35.59;102068.59;5059092;28;20110;-93
2022/11/27 05:11:37;;;;;;;3.63;2.40;;;;;;;16.52;35.55;102066.88;5058646;28;20082;-92
2022/11/27 05:14:15;;;;;;;3.03;2.20;;;;;;;16.48;35.53;102057.50;5042105;28;20028;-93
2022/11/27 05:16:48;;;;;;;4.03;2.38;;;;;;;16.53;35.58;102063.19;5046728;28;20495;-94
2022/11/27 05:19:14;;;;;;;3.40;2.30;;;;;;;16.46;35.65;102056.84;5076051;28;20114;-94
2022/11/27 05:21:39;;;;;;;3.30;2.50;;;;;;;16.53;35.57;102063.19;5057639;28;20036;-93
2022/11/27 05:24:08;;;;;;;3.45;2.22;;;;;;;16.58;35.47;102076.13;5065677;28;20077;-93
2022/11/27 05:26:34;;;;;;;2.92;2.20;;;;;;;16.44;35.52;102056.22;5076166;28;20016;-94
2022/11/27 05:29:00;;;;;;;3.47;2.70;;;;;;;16.43;35.58;102051.81;5061755;28;20394;-93
2022/11/27 05:31:25;;;;;;;3.05;2.35;;;;;;;16.47;35.58;102059.38;5058959;28;20107;-93
2022/11/27 05:33:51;;;;;;;2.70;2.10;;;;;;;16.49;35.59;102067.28;5076079;28;20103;-94
2022/11/27 05:36:17;;;;;;;3.17;2.13;;;;;;;16.50;35.52;102063.53;5058047;28;20055;-94
2022/11/27 05:38:42;;;;;;;3.40;2.40;;;;;;;16.49;35.54;102072.69;5042329;28;20032;-93
2022/11/27 05:41:08;;;;;;;2.63;2.20;;;;;;;16.46;35.54;102067.66;5075729;28;20113;-94
2022/11/27 05:43:34;;;;;;;3.38;2.38;;;;;;;16.51;35.60;102073.34;5058821;28;20032;-93
2022/11/27 05:46:06;;;;;;;2.63;1.95;;;;;;;16.51;35.55;102076.03;5060373;28;20421;-94
2022/11/27 05:48:34;;;;;;;2.97;1.98;;;;;;;16.44;35.57;102075.09;5075676;28;20419;-93
2022/11/27 05:51:00;;;;;;;3.50;2.40;;;;;;;16.46;35.53;102089.25;5073985;28;20371;-93
2022/11/27 05:53:26;;;;;;;2.85;2.20;;;;;;;16.51;35.48;102081.44;5075488;28;20416;-93
2022/11/27 05:55:51;;;;;;;2.67;1.95;;;;;;;16.47;35.50;102080.09;5041729;28;20025;-94
2022/11/27 05:58:17;;;;;;;3.42;2.30;;;;;;;16.38;35.39;102059.63;5041774;28;20020;-93
2022/11/27 06:00:48;;;;;;;3.22;2.22;;;;;;;16.37;35.45;102048.03;5058530;28;20466;-93
2022/11/27 06:03:14;;;;;;;2.83;2.08;;;;;;;16.48;35.59;102085.31;5040997;28;20032;-92
2022/11/27 06:05:40;;;;;;;2.42;2.00;;;;;;;16.53;35.30;102085.59;5075879;28;20463;-93
2022/11/27 06:08:12;;;;;;;3.05;2.25;;;;;;;16.38;35.53;102059.63;5075108;28;20028;-92
2022/11/27 06:10:38;;;;;;;2.97;2.10;;;;;;;16.46;35.40;102081.16;5073997;28;20050;-95
2022/11/27 06:13:04;;;;;;;2.97;2.20;;;;;;;16.44;35.47;102080.50;5041995;28;20078;-93
2022/11/27 06:15:29;;;;;;;3.08;1.80;;;;;;;16.42;35.50;102071.72;5053742;28;20514;-93
2022/11/27 06:17:55;;;;;;;2.92;2.20;;;;;;;16.52;35.48;102080.38;5062372;28;20067;-94
2022/11/27 06:20:21;;;;;;;2.83;2.15;;;;;;;16.46;35.47;102086.53;5078240;28;20531;-93
2022/11/27 06:22:46;;;;;;;2.33;1.88;;;;;;;16.49;35.72;102083.47;5062562;28;20397;-93
2022/11/27 06:25:12;;;;;;;2.88;1.95;;;;;;;16.49;35.82;102080.78;5061550;28;20423;-94
2022/11/27 06:27:38;;;;;;;3.47;2.35;;;;;;;16.48;35.50;102093.41;5045440;28;20548;-94
2022/11/27 06:30:07;;;;;;;2.67;1.92;;;;;;;16.45;35.47;102087.56;5062307;28;20036;-93
2022/11/27 06:32:33;;;;;;;3.05;2.08;;;;;;;16.47;35.53;102090.91;5046785;28;20023;-93
2022/11/27 06:34:59;;;;;;;3.30;2.15;;;;;;;16.46;35.40;102091.94;5054174;28;20042;-95
2022/11/27 06:37:24;;;;;;;2.50;1.95;;;;;;;16.54;35.51;102102.66;5066455;28;20020;-93
2022/11/27 06:39:50;;;;;;;2.35;2.03;;;;;;;16.45;35.47;102095.66;5066393;28;20040;-94
2022/11/27 06:42:16;;;;;;;3.15;1.83;;;;;;;16.53;35.44;102106.38;5076196;28;20091;-93
2022/11/27 06:44:41;;;;;;;2.85;2.03;;;;;;;16.47;35.40;102090.91;5078923;28;20505;-93
2022/11/27 06:47:07;;;;;;;2.70;2.10;;;;;;;16.47;35.38;102090.91;5065395;28;20127;-94
2022/11/27 06:49:33;;;;;;;2.67;2.10;;;;;;;16.45;35.51;102090.25;5080643;28;20044;-93
2022/11/27 06:51:59;;;;;;;2.17;1.95;;;;;;;16.48;35.50;102097.97;5062138;28;20349;-93
2022/11/27 06:54:25;;;;;;;2.45;1.90;;;;;;;16.51;35.32;102097.63;5044298;28;20359;-93
2022/11/27 06:56:50;;;;;;;2.88;1.95;;;;;;;16.48;35.63;102087.19;5038649;28;20475;-93
2022/11/27 06:59:16;;;;;;;2.88;1.92;;;;;;;16.46;35.62;102083.84;5070784;28;20031;-92
2022/11/27 07:01:42;;;;;;;2.20;1.75;;;;;;;16.49;35.30;102099.66;5061376;28;20107;-94
2022/11/27 07:04:12;;;;;;;2.95;1.70;;;;;;;16.47;35.43;102085.50;5077852;28;20036;-93
2022/11/27 07:06:37;;;;;;;3.42;2.20;;;;;;;16.55;35.37;102098.09;5044759;28;20086;-93
2022/11/27 07:09:03;;;;;;;2.33;1.95;;;;;;;16.49;35.34;102091.56;5045325;28;20858;-93
2022/11/27 07:11:30;;;;;;;2.60;1.80;;;;;;;16.45;35.40;102087.56;5060294;28;20033;-92
2022/11/27 07:13:57;;;;;;;3.47;2.10;;;;;;;16.42;35.48;102083.38;5037975;28;20043;-93
2022/11/27 07:16:23;;;;;;;2.83;2.20;;;;;;;16.43;35.54;102095.81;5078571;28;20107;-94
2022/11/27 07:18:50;;;;;;;2.63;1.98;;;;;;;16.42;35.29;102098.72;5077969;28;20035;-93
2022/11/27 07:21:16;;;;;;;3.00;1.73;;;;;;;16.39;35.45;102094.53;5061839;28;20431;-93
2022/11/27 07:23:42;;;;;;;1.98;1.77;;;;;;;16.45;35.57;102112.69;5042089;28;20178;-93
2022/11/27 07:26:12;;;;;;;2.22;1.80;;;;;;;16.48;35.35;102111.47;5043091;28;20074;-93
2022/11/27 07:28:38;;;;;;;2.70;1.70;;;;;;;16.41;35.33;102102.44;5042458;28;20374;-93
2022/11/27 07:31:04;;;;;;;2.53;1.95;;;;;;;16.38;35.55;102092.84;5043488;28;20058;-93
2022/11/27 07:33:30;;;;;;;2.65;1.90;;;;;;;16.47;35.49;102112.50;5060719;28;20016;-92
2022/11/27 07:36:01;;;;;;;2.55;1.95;;;;;;;16.43;35.40;102111.19;5044080;28;20538;-93
2022/11/27 07:38:26;;;;;;;2.85;1.92;;;;;;;16.49;35.45;102122.09;5060513;28;20020;-95
2022/11/27 07:40:52;;;;;;;2.22;1.67;;;;;;;16.47;35.34;102113.34;5060585;28;20477;-94
2022/11/27 07:43:18;;;;;;;1.83;1.60;;;;;;;16.48;35.37;102114.19;5057960;28;20092;-93
2022/11/27 07:45:43;;;;;;;2.58;2.28;;;;;;;16.50;35.39;102123.75;5057697;28;20052;-93
2022/11/27 07:48:09;;;;;;;2.45;2.10;;;;;;;16.49;35.36;102115.88;5078148;28;20048;-94
2022/11/27 07:50:35;;;;;;;2.20;1.80;;;;;;;16.44;35.48;102110.19;5065356;28;20491;-94
2022/11/27 07:53:00;;;;;;;2.00;1.77;;;;;;;16.45;35.51;102112.69;5063701;28;20445;-93
2022/11/27 07:55:26;;;;;;;2.17;1.75;;;;;;;16.50;35.36;102128.31;5061105;28;20099;-93
2022/11/27 07:57:52;;;;;;;2.40;1.75;;;;;;;16.44;35.42;102108.31;5077391;28;20115;-92
2022/11/27 08:00:18;;;;;;;2.85;1.80;;;;;;;16.51;35.38;102127.31;5076246;28;20099;-93
2022/11/27 08:02:43;;;;;;;3.15;1.90;;;;;;;16.48;35.47;102119.56;5060492;28;20119;-93
2022/11/27 08:05:15;;;;;;;2.08;1.50;;;;;;;16.41;35.48;102099.75;5048182;28;20050;-94
2022/11/27 08:07:41;;;;;;;2.05;1.52;;;;;;;16.47;35.51;102112.50;5077447;28;20505;-93
2022/11/27 08:10:07;;;;;;;3.60;2.00;;;;;;;16.38;35.43;102097.41;5076767;28;20103;-93
2022/11/27 08:12:32;;;;;;;2.15;1.77;;;;;;;16.48;35.46;102112.31;5042275;28;20096;-92
2022/11/27 08:14:58;;;;;;;2.60;2.08;;;;;;;16.44;35.49;102110.19;5075997;28;20074;-93
2022/11/27 08:17:24;;;;;;;2.25;1.85;;;;;;;16.37;35.41;102101.13;5060336;28;20030;-94
2022/11/27 08:19:49;;;;;;;2.72;2.00;;;;;;;16.46;35.46;102122.44;5060426;28;20463;-93
2022/11/27 08:22:15;;;;;;;2.47;1.88;;;;;;;16.44;35.54;102118.28;5075609;28;20079;-93
2022/11/27 08:24:41;;;;;;;2.50;1.83;;;;;;;16.42;35.50;102109.50;5073580;28;20371;-92
2022/11/27 08:27:08;;;;;;;1.65;1.50;;;;;;;16.43;35.63;102112.03;5070176;28;20062;-92
2022/11/27 08:29:34;;;;;;;3.42;1.73;;;;;;;16.46;35.48;102121.63;5068873;28;20138;-93
2022/11/27 08:31:59;;;;;;;2.38;1.88;;;;;;;16.38;35.44;102108.22;5076174;28;20114;-92
2022/11/27 08:34:31;;;;;;;2.20;1.98;;;;;;;16.41;35.49;102114.06;5060150;28;20038;-93
2022/11/27 08:36:56;;;;;;;2.35;1.92;;;;;;;16.39;35.41;102105.31;5060052;28;20409;-94
2022/11/27 08:39:25;;;;;;;2.78;2.00;;;;;;;16.38;35.50;102109.03;5041150;28;20024;-93
2022/11/27 08:41:51;;;;;;;2.50;1.75;;;;;;;16.37;35.53;102101.97;5074674;28;20123;-90
2022/11/27 08:44:16;;;;;;;2.08;1.80;;;;;;;16.43;35.42;102113.88;5076517;28;20031;-93
2022/11/27 08:46:42;;;;;;;2.00;1.80;;;;;;;16.31;35.48;102095.44;5058797;28;20120;-94
2022/11/27 08:49:08;;;;;;;2.97;2.10;;;;;;;16.37;35.46;102098.44;5057958;28;20040;-93
2022/11/27 08:51:33;;;;;;;3.00;1.77;;;;;;;16.44;35.55;102113.72;5059574;28;20024;-94
2022/11/27 08:53:59;;;;;;;2.13;1.63;;;;;;;16.28;35.47;102090.44;5076258;28;20111;-93
2022/11/27 08:56:25;;;;;;;2.25;1.80;;;;;;;16.27;35.65;102083.34;5058766;28;21148;-93
2022/11/27 08:58:51;;;;;;;2.13;1.70;;;;;;;16.46;35.69;102118.94;5076640;28;20157;-93
2022/11/27 09:01:38;;;;;;;2.45;1.83;;;;;;;16.38;35.35;102105.50;5060339;28;20679;-93
2022/11/27 09:04:06;;;;;;;3.15;1.80;;;;;;;16.45;35.40;102119.94;5060141;28;20451;-93
2022/11/27 09:06:33;;;;;;;1.70;1.60;;;;;;;16.36;35.41;102104.88;5076154;28;20121;-94
2022/11/27 09:08:59;;;;;;;4.38;2.13;;;;;;;16.40;35.49;102111.56;5076023;28;20031;-93
2022/11/27 09:11:25;;;;;;;2.35;1.90;;;;;;;16.46;35.38;102122.44;5059437;28;20289;-92
2022/11/27 09:13:51;;;;;;;2.58;1.77;;;;;;;16.39;35.49;102115.28;5076732;28;20500;-93
2022/11/27 09:16:18;;;;;;;2.65;1.67;;;;;;;16.47;35.31;102120.59;5055891;28;20044;-93
2022/11/27 09:18:44;;;;;;;2.67;2.20;;;;;;;16.41;35.52;102130.25;5066076;28;20020;-92
2022/11/27 09:21:10;;;;;;;2.65;1.67;;;;;;;16.43;35.49;102121.97;5059601;28;20127;-92
2022/11/27 09:23:36;;;;;;;2.88;2.13;;;;;;;16.41;35.56;102119.47;5074975;28;20267;-93
2022/11/27 09:26:06;;;;;;;2.42;1.80;;;;;;;16.44;35.56;102119.09;5047335;28;20051;-93
2022/11/27 09:28:32;;;;;;;2.42;1.95;;;;;;;16.40;35.46;102117.81;5060180;28;20098;-94
2022/11/27 09:31:00;;;;;;;2.22;1.50;;;;;;;16.36;35.53;102107.56;5059647;28;20028;-93
2022/11/27 09:33:26;;;;;;;3.05;1.80;;;;;;;16.41;35.49;102110.53;5059207;28;20066;-93
2022/11/27 09:35:52;;;;;;;3.05;2.03;;;;;;;16.26;35.34;102089.75;5042441;28;20028;-93
2022/11/27 09:38:18;;;;;;;2.20;1.83;;;;;;;16.31;35.51;102092.75;5058393;28;20247;-92
2022/11/27 09:40:51;;;;;;;3.53;2.20;;;;;;;16.34;35.56;102105.03;5067764;28;20062;-93
2022/11/27 09:43:17;;;;;;;2.97;2.08;;;;;;;16.31;35.28;102095.44;5075924;28;20505;-93
2022/11/27 09:45:49;;;;;;;2.20;1.90;;;;;;;16.35;35.53;102098.63;5042070;28;20032;-92
2022/11/27 09:48:18;;;;;;;3.22;1.95;;;;;;;16.31;35.48;102090.03;5057755;28;20620;-93
2022/11/27 09:50:49;;;;;;;2.53;1.88;;;;;;;16.36;35.50;102085.97;5049648;28;20115;-92
2022/11/27 09:53:42;;;;;;;2.65;2.08;;;;;;;16.34;35.34;102089.69;5062898;28;20036;-92
2022/11/27 09:56:10;;;;;;;2.60;2.00;;;;;;;16.39;35.45;102088.31;5063383;28;20192;-93
2022/11/27 09:58:55;;;;;;;2.67;1.92;;;;;;;16.44;35.49;102092.13;5055009;28;20055;-93
2022/11/27 10:01:29;;;;;;;2.45;1.85;;;;;;;16.39;35.52;102094.53;5070058;28;20039;-92
2022/11/27 10:03:55;;;;;;;2.03;1.70;;;;;;;16.38;35.42;102092.84;5045678;28;20111;-92
2022/11/27 10:06:31;;;;;;;2.47;1.95;;;;;;;16.36;35.52;102083.28;5071238;28;20540;-92
2022/11/27 10:09:15;;;;;;;2.95;2.20;;;;;;;16.41;35.57;102087.09;5062419;28;20426;-93
2022/11/27 10:12:16;;;;;;;3.08;2.10;;;;;;;16.43;35.54;102089.59;5079327;28;20035;-91
2022/11/27 10:14:53;;;;;;;3.25;2.33;;;;;;;16.43;35.48;102098.53;5076485;28;20094;-93
2022/11/27 10:17:37;;;;;;;2.25;1.98;;;;;;;16.41;35.35;102086.25;5080064;28;20031;-92
2022/11/27 10:20:42;;;;;;;2.60;1.98;;;;;;;16.42;35.54;102087.91;5076900;28;20036;-93
2022/11/27 10:23:26;;;;;;;;;;;;;;;16.43;35.50;102085.03;5079334;28;20078;-92
2022/11/27 10:25:55;;;;;;;2.95;1.92;;;;;;;16.32;35.31;102078.25;5112085;27;19955;-94
2022/11/27 10:28:42;;;;;;;4.20;2.17;;;;;;;16.40;35.53;102090.81;5046424;28;20115;-92
2022/11/27 10:31:25;;;;;;;2.97;2.35;;;;;;;16.25;35.57;102063.00;5078111;28;20494;-93
2022/11/27 10:33:53;;;;;;;3.47;2.25;;;;;;;16.40;35.54;102085.44;5078989;28;20024;-92
2022/11/27 10:36:38;;;;;;;2.85;2.10;;;;;;;16.34;35.54;102078.06;5061469;28;20103;-92
2022/11/27 10:39:06;;;;;;;3.47;2.10;;;;;;;16.31;35.57;102076.56;5061877;28;20040;-93
2022/11/27 10:41:36;;;;;;;3.00;2.15;;;;;;;16.31;35.56;102059.53;5072996;28;20035;-91
2022/11/27 10:44:24;;;;;;;2.45;1.88;;;;;;;16.30;35.51;102058.72;5063632;28;20023;-94
2022/11/27 10:46:51;;;;;;;3.03;2.08;;;;;;;16.31;35.69;102048.75;5068219;28;20407;-94
2022/11/27 10:49:16;;;;;;;2.40;1.80;;;;;;;16.30;35.69;102056.00;5062187;28;20039;-95
2022/11/27 10:51:42;;;;;;;3.38;2.03;;;;;;;16.25;35.58;102036.84;5078502;28;20250;-91
2022/11/27 10:54:13;;;;;;;3.67;2.40;;;;;;;16.39;35.57;102066.72;5080771;28;20582;-91
2022/11/27 10:57:11;;;;;;;3.25;2.40;;;;;;;16.38;35.73;102065.03;5062203;28;20020;-92
2022/11/27 10:59:42;;;;;;;2.30;1.95;;;;;;;16.31;35.53;102056.84;5073322;28;20508;-94
2022/11/27 11:02:30;;;;;;;3.45;2.50;;;;;;;16.32;35.56;102055.84;5061782;28;20062;-93
2022/11/27 11:04:56;;;;;;;2.80;1.95;;;;;;;16.13;35.65;102059.91;5078437;28;20035;-92
2022/11/27 11:07:26;;;;;;;3.15;2.15;;;;;;;16.13;35.80;102055.34;5078962;28;20111;-92
2022/11/27 11:09:52;;;;;;;3.15;2.20;;;;;;;16.18;35.68;102060.19;5063619;28;20039;-93
2022/11/27 11:12:20;;;;;;;3.22;2.38;;;;;;;16.24;35.46;102070.22;5060945;28;20025;-92
2022/11/27 11:14:59;;;;;;;3.60;2.15;;;;;;;16.29;35.50;102069.69;5072939;28;20500;-93
2022/11/27 11:17:40;;;;;;;6.13;2.60;;;;;;;16.27;35.36;102061.78;5076273;28;20032;-94
2022/11/27 11:20:32;;;;;;;3.53;2.47;;;;;;;16.29;35.49;102073.22;5047388;28;20360;-94
2022/11/27 11:22:58;;;;;;;3.40;2.15;;;;;;;16.22;35.42;102056.09;5077865;28;20044;-94
2022/11/27 11:25:24;;;;;;;4.20;2.53;;;;;;;16.24;35.24;102051.34;5046174;28;20046;-94
2022/11/27 11:27:50;;;;;;;4.30;2.70;;;;;;;16.30;35.46;102071.38;5053202;28;20799;-94
2022/11/27 11:30:23;;;;;;;3.33;2.33;;;;;;;16.18;35.62;102060.19;5042329;28;20060;-93
2022/11/27 11:32:49;;;;;;;4.00;2.47;;;;;;;16.13;35.44;102046.41;5060884;28;20474;-94
2022/11/27 11:35:33;;;;;;;5.28;2.53;;;;;;;16.27;35.28;102064.47;5062179;28;20042;-95
2022/11/27 11:38:00;;;;;;;3.15;2.30;;;;;;;16.27;35.02;102064.47;5046184;28;20036;-95